10  °C
Temperature
50  °F
Temperature
48  °F
 Dewpoint
9  °C
  Dewpoint
94  %
 Humidity
  Temperature
19  km/h
Wind Speed
10  kts
Wind Speed
12  mph
Wind Speed
5.4  m/s
Wind Speed
100°
Due East

Wind Speed
Light Rain
Showers
Pressure 1013.92 (hPa) - 29.94 (inHG)
Visibility 6.0 (km) - 3.7 (mi)

Sky Conditions
LHBP
Location Budapest Ferenc Liszt International 20 km (12.43 mi)
Metar :LHBP 201500Z 10010KT 6000 RA FEW014 SCT039 OVC060 10/09 Q1014 NOSIG
Wed 20th November 16:00 pm

Nearest Airport
https://www.checkwx.com/weather/LHBP
  Metar Aviation API Data Provided by https://www.checkwx.com/ Original CSS/SVG/PHP scripts by weather34.com © 2015-2019